EGMC

Southend Airport

Southend, United Kingdom
METAR EGMC 190650Z 10002KT CAVOK 19/12 Q1019
Observed Flight Rules
Jul-19 @ 06:50 UTC (36 minutes ago) Visual Flight Rules
Wind Visibility Clouds
100° at 2 knots 10,000+ meters
  • Clear skies
Temperatures Readings
Current 19°C / 66°F
Dewpoint 12°C / 54°F
Humidity 64%
Altimeter 30.09" Hg
Pressure 1019 hPa
Elevation 15
METAR EGMC 190650Z 10002KT CAVOK 19/12 Q1019
Observed Flight Rules
Jul-19 @ 06:50 UTC
(36 minutes ago)
VFR
Wind Visibility
100° at 2 knots 10,000+ meters
Clouds
  • Clear skies
Temperature Dewpoint
19°C / 66°F 12°C / 54°F
Humidity Altimeter Pressure
64% 30.09" Hg 1019 hPa